John F Kennedy International Airport

KJFK | JFK

New York , New-York , United States

Monday, October 21st, 2019 | 23:50

Weather

KJFK 220251Z 04004KT 10SM FEW039 BKN250 12/11 A3014 RMK AO2 SLP205 T01170111 51013 $

Charts

54 Available

Gates

335 Available

Runways

4 Available

Events

No events for this airport


New event